sensor_id;sensor_type;location;lat;lon;timestamp;temperature;humidity
3075;DHT22;1548;51.716;8.748;2022-09-09T00:04:33;17.10;76.50
3075;DHT22;1548;51.716;8.748;2022-09-09T00:07:32;17.10;76.40
3075;DHT22;1548;51.716;8.748;2022-09-09T00:12:49;17.20;76.60
3075;DHT22;1548;51.716;8.748;2022-09-09T00:15:23;17.10;76.40
3075;DHT22;1548;51.716;8.748;2022-09-09T00:17:58;17.20;76.50
3075;DHT22;1548;51.716;8.748;2022-09-09T00:20:33;17.30;76.50
3075;DHT22;1548;51.716;8.748;2022-09-09T00:23:19;17.30;76.50
3075;DHT22;1548;51.716;8.748;2022-09-09T00:28:23;17.50;76.10
3075;DHT22;1548;51.716;8.748;2022-09-09T00:30:50;17.50;76.10
3075;DHT22;1548;51.716;8.748;2022-09-09T00:33:18;17.50;76.10
3075;DHT22;1548;51.716;8.748;2022-09-09T00:35:52;17.60;76.00
3075;DHT22;1548;51.716;8.748;2022-09-09T00:38:40;17.50;76.10
3075;DHT22;1548;51.716;8.748;2022-09-09T00:41:12;17.50;76.10
3075;DHT22;1548;51.716;8.748;2022-09-09T00:43:40;17.50;75.90
3075;DHT22;1548;51.716;8.748;2022-09-09T00:51:59;17.70;76.30
3075;DHT22;1548;51.716;8.748;2022-09-09T00:57:34;17.60;76.60
3075;DHT22;1548;51.716;8.748;2022-09-09T01:00:22;17.60;76.60
3075;DHT22;1548;51.716;8.748;2022-09-09T01:14:20;17.60;76.80
3075;DHT22;1548;51.716;8.748;2022-09-09T01:16:50;17.60;76.80
3075;DHT22;1548;51.716;8.748;2022-09-09T01:19:24;17.60;76.80
3075;DHT22;1548;51.716;8.748;2022-09-09T01:22:03;17.50;77.00
3075;DHT22;1548;51.716;8.748;2022-09-09T01:24:38;17.40;77.00
3075;DHT22;1548;51.716;8.748;2022-09-09T01:27:06;17.30;77.00
3075;DHT22;1548;51.716;8.748;2022-09-09T01:29:32;17.30;77.10
3075;DHT22;1548;51.716;8.748;2022-09-09T01:32:01;17.30;77.10
3075;DHT22;1548;51.716;8.748;2022-09-09T01:34:31;17.30;77.20
3075;DHT22;1548;51.716;8.748;2022-09-09T01:37:08;17.30;77.20
3075;DHT22;1548;51.716;8.748;2022-09-09T01:39:36;17.30;77.10
3075;DHT22;1548;51.716;8.748;2022-09-09T01:42:04;17.30;77.10
3075;DHT22;1548;51.716;8.748;2022-09-09T01:44:32;17.20;77.10
3075;DHT22;1548;51.716;8.748;2022-09-09T01:46:58;17.20;77.10
3075;DHT22;1548;51.716;8.748;2022-09-09T01:49:24;17.10;77.20
3075;DHT22;1548;51.716;8.748;2022-09-09T01:51:53;17.10;77.10
3075;DHT22;1548;51.716;8.748;2022-09-09T01:54:20;17.10;77.30
3075;DHT22;1548;51.716;8.748;2022-09-09T02:04:52;16.90;77.50
3075;DHT22;1548;51.716;8.748;2022-09-09T02:09:56;16.80;77.70
3075;DHT22;1548;51.716;8.748;2022-09-09T02:12:24;16.70;77.50
3075;DHT22;1548;51.716;8.748;2022-09-09T02:15:00;16.70;77.60
3075;DHT22;1548;51.716;8.748;2022-09-09T02:17:31;16.80;77.60
3075;DHT22;1548;51.716;8.748;2022-09-09T02:20:18;16.90;77.50
3075;DHT22;1548;51.716;8.748;2022-09-09T02:22:46;16.90;77.30
3075;DHT22;1548;51.716;8.748;2022-09-09T02:25:16;16.90;77.30
3075;DHT22;1548;51.716;8.748;2022-09-09T02:27:45;17.00;77.30
3075;DHT22;1548;51.716;8.748;2022-09-09T02:30:12;17.00;77.10
3075;DHT22;1548;51.716;8.748;2022-09-09T02:32:39;17.00;77.10
3075;DHT22;1548;51.716;8.748;2022-09-09T02:35:11;17.00;77.10
3075;DHT22;1548;51.716;8.748;2022-09-09T02:37:38;17.00;77.10
3075;DHT22;1548;51.716;8.748;2022-09-09T02:40:06;17.00;77.20
3075;DHT22;1548;51.716;8.748;2022-09-09T02:42:45;17.00;77.20
3075;DHT22;1548;51.716;8.748;2022-09-09T02:45:14;17.00;77.30
3075;DHT22;1548;51.716;8.748;2022-09-09T02:50:35;17.00;77.30
3075;DHT22;1548;51.716;8.748;2022-09-09T02:53:18;17.00;77.30
3075;DHT22;1548;51.716;8.748;2022-09-09T02:56:04;17.00;77.30
3075;DHT22;1548;51.716;8.748;2022-09-09T02:58:29;17.00;77.30
3075;DHT22;1548;51.716;8.748;2022-09-09T03:00:56;17.00;77.30
3075;DHT22;1548;51.716;8.748;2022-09-09T03:03:23;17.00;77.30
3075;DHT22;1548;51.716;8.748;2022-09-09T03:05:49;17.00;77.30
3075;DHT22;1548;51.716;8.748;2022-09-09T03:08:14;17.00;77.30
3075;DHT22;1548;51.716;8.748;2022-09-09T03:10:40;16.90;77.30
3075;DHT22;1548;51.716;8.748;2022-09-09T03:13:06;17.00;77.30
3075;DHT22;1548;51.716;8.748;2022-09-09T03:15:32;16.90;77.30
3075;DHT22;1548;51.716;8.748;2022-09-09T03:17:58;16.90;77.30
3075;DHT22;1548;51.716;8.748;2022-09-09T03:20:25;16.90;77.30
3075;DHT22;1548;51.716;8.748;2022-09-09T03:22:52;16.90;77.30
3075;DHT22;1548;51.716;8.748;2022-09-09T03:25:18;16.90;77.30
3075;DHT22;1548;51.716;8.748;2022-09-09T03:27:43;16.90;77.30
3075;DHT22;1548;51.716;8.748;2022-09-09T03:30:09;16.90;77.20
3075;DHT22;1548;51.716;8.748;2022-09-09T03:32:36;16.90;77.30
3075;DHT22;1548;51.716;8.748;2022-09-09T03:35:01;16.90;77.30
3075;DHT22;1548;51.716;8.748;2022-09-09T03:37:27;16.90;77.30
3075;DHT22;1548;51.716;8.748;2022-09-09T03:39:53;16.90;77.30
3075;DHT22;1548;51.716;8.748;2022-09-09T03:42:19;16.90;77.40
3075;DHT22;1548;51.716;8.748;2022-09-09T03:44:46;16.90;77.30
3075;DHT22;1548;51.716;8.748;2022-09-09T03:47:21;16.90;77.40
3075;DHT22;1548;51.716;8.748;2022-09-09T03:49:47;16.90;77.40
3075;DHT22;1548;51.716;8.748;2022-09-09T03:52:14;17.00;77.40
3075;DHT22;1548;51.716;8.748;2022-09-09T03:54:40;17.00;77.30
3075;DHT22;1548;51.716;8.748;2022-09-09T03:57:06;17.00;77.20
3075;DHT22;1548;51.716;8.748;2022-09-09T03:59:32;17.00;77.30
3075;DHT22;1548;51.716;8.748;2022-09-09T04:01:58;17.00;77.20
3075;DHT22;1548;51.716;8.748;2022-09-09T04:04:24;17.10;77.30
3075;DHT22;1548;51.716;8.748;2022-09-09T04:06:51;17.10;77.20
3075;DHT22;1548;51.716;8.748;2022-09-09T04:09:17;17.20;77.10
3075;DHT22;1548;51.716;8.748;2022-09-09T04:11:42;17.20;77.00
3075;DHT22;1548;51.716;8.748;2022-09-09T04:14:08;17.20;76.90
3075;DHT22;1548;51.716;8.748;2022-09-09T04:16:34;17.20;77.00
3075;DHT22;1548;51.716;8.748;2022-09-09T04:19:02;17.20;77.00
3075;DHT22;1548;51.716;8.748;2022-09-09T04:21:30;17.30;76.90
3075;DHT22;1548;51.716;8.748;2022-09-09T04:23:55;17.30;76.90
3075;DHT22;1548;51.716;8.748;2022-09-09T04:26:21;17.30;76.90
3075;DHT22;1548;51.716;8.748;2022-09-09T04:28:47;17.30;76.80
3075;DHT22;1548;51.716;8.748;2022-09-09T04:31:19;17.30;76.80
3075;DHT22;1548;51.716;8.748;2022-09-09T04:33:46;17.30;76.80
3075;DHT22;1548;51.716;8.748;2022-09-09T04:36:12;17.30;76.70
3075;DHT22;1548;51.716;8.748;2022-09-09T04:38:38;17.30;76.80
3075;DHT22;1548;51.716;8.748;2022-09-09T04:41:05;17.20;76.80
3075;DHT22;1548;51.716;8.748;2022-09-09T04:43:31;17.20;76.90
3075;DHT22;1548;51.716;8.748;2022-09-09T04:45:57;17.20;76.80
3075;DHT22;1548;51.716;8.748;2022-09-09T04:48:24;17.20;76.90
3075;DHT22;1548;51.716;8.748;2022-09-09T04:50:55;17.20;76.90
3075;DHT22;1548;51.716;8.748;2022-09-09T04:53:20;17.20;77.00
3075;DHT22;1548;51.716;8.748;2022-09-09T04:55:47;17.10;77.00
3075;DHT22;1548;51.716;8.748;2022-09-09T04:58:14;17.10;77.10
3075;DHT22;1548;51.716;8.748;2022-09-09T05:00:39;17.00;77.20
3075;DHT22;1548;51.716;8.748;2022-09-09T05:03:05;17.00;77.20
3075;DHT22;1548;51.716;8.748;2022-09-09T05:05:33;17.00;77.20
3075;DHT22;1548;51.716;8.748;2022-09-09T05:08:05;16.90;77.30
3075;DHT22;1548;51.716;8.748;2022-09-09T05:10:33;16.80;77.50
3075;DHT22;1548;51.716;8.748;2022-09-09T05:12:58;16.80;77.50
3075;DHT22;1548;51.716;8.748;2022-09-09T05:15:24;16.80;77.60
3075;DHT22;1548;51.716;8.748;2022-09-09T05:17:50;16.70;77.50
3075;DHT22;1548;51.716;8.748;2022-09-09T05:20:17;16.70;77.60
3075;DHT22;1548;51.716;8.748;2022-09-09T05:22:43;16.70;77.60
3075;DHT22;1548;51.716;8.748;2022-09-09T05:25:09;16.80;77.60
3075;DHT22;1548;51.716;8.748;2022-09-09T05:27:35;16.80;77.60
3075;DHT22;1548;51.716;8.748;2022-09-09T05:30:00;16.80;77.50
3075;DHT22;1548;51.716;8.748;2022-09-09T05:32:26;16.80;77.50
3075;DHT22;1548;51.716;8.748;2022-09-09T05:34:52;16.90;77.40
3075;DHT22;1548;51.716;8.748;2022-09-09T05:37:18;17.00;77.30
3075;DHT22;1548;51.716;8.748;2022-09-09T05:39:43;17.10;77.30
3075;DHT22;1548;51.716;8.748;2022-09-09T05:42:09;17.10;77.20
3075;DHT22;1548;51.716;8.748;2022-09-09T05:44:35;17.20;77.10
3075;DHT22;1548;51.716;8.748;2022-09-09T05:47:01;17.30;77.10
3075;DHT22;1548;51.716;8.748;2022-09-09T05:49:26;17.50;76.90
3075;DHT22;1548;51.716;8.748;2022-09-09T05:51:52;17.60;76.60
3075;DHT22;1548;51.716;8.748;2022-09-09T05:54:18;17.80;76.40
3075;DHT22;1548;51.716;8.748;2022-09-09T05:56:43;17.90;76.10
3075;DHT22;1548;51.716;8.748;2022-09-09T05:59:09;18.00;75.80
3075;DHT22;1548;51.716;8.748;2022-09-09T06:01:36;18.10;75.80
3075;DHT22;1548;51.716;8.748;2022-09-09T06:04:05;18.20;75.70
3075;DHT22;1548;51.716;8.748;2022-09-09T06:06:33;18.40;75.60
3075;DHT22;1548;51.716;8.748;2022-09-09T06:09:04;18.60;75.30
3075;DHT22;1548;51.716;8.748;2022-09-09T06:11:32;18.70;75.00
3075;DHT22;1548;51.716;8.748;2022-09-09T06:14:01;18.80;74.70
3075;DHT22;1548;51.716;8.748;2022-09-09T06:16:29;18.90;74.50
3075;DHT22;1548;51.716;8.748;2022-09-09T06:18:56;18.90;74.40
3075;DHT22;1548;51.716;8.748;2022-09-09T06:21:24;19.00;74.30
3075;DHT22;1548;51.716;8.748;2022-09-09T06:23:50;19.00;74.20
3075;DHT22;1548;51.716;8.748;2022-09-09T06:26:24;19.00;74.30
3075;DHT22;1548;51.716;8.748;2022-09-09T06:28:52;19.00;74.10
3075;DHT22;1548;51.716;8.748;2022-09-09T06:31:20;19.00;74.20
3075;DHT22;1548;51.716;8.748;2022-09-09T06:33:47;19.00;74.10
3075;DHT22;1548;51.716;8.748;2022-09-09T06:36:17;19.10;74.00
3075;DHT22;1548;51.716;8.748;2022-09-09T06:38:43;19.10;74.20
3075;DHT22;1548;51.716;8.748;2022-09-09T06:41:11;19.20;74.10
3075;DHT22;1548;51.716;8.748;2022-09-09T06:43:37;19.40;73.90
3075;DHT22;1548;51.716;8.748;2022-09-09T06:46:12;19.40;73.70
3075;DHT22;1548;51.716;8.748;2022-09-09T06:48:42;19.50;73.40
3075;DHT22;1548;51.716;8.748;2022-09-09T06:51:12;19.60;73.50
3075;DHT22;1548;51.716;8.748;2022-09-09T06:53:39;19.50;73.30
3075;DHT22;1548;51.716;8.748;2022-09-09T06:58:37;19.40;73.40
3075;DHT22;1548;51.716;8.748;2022-09-09T07:01:08;19.30;73.40
3075;DHT22;1548;51.716;8.748;2022-09-09T07:03:34;19.20;73.80
3075;DHT22;1548;51.716;8.748;2022-09-09T07:06:00;19.20;73.90
3075;DHT22;1548;51.716;8.748;2022-09-09T07:08:26;19.10;74.00
3075;DHT22;1548;51.716;8.748;2022-09-09T07:10:52;19.00;74.20
3075;DHT22;1548;51.716;8.748;2022-09-09T07:13:26;18.90;74.20
3075;DHT22;1548;51.716;8.748;2022-09-09T07:15:52;18.90;74.40
3075;DHT22;1548;51.716;8.748;2022-09-09T07:18:19;19.00;74.40
3075;DHT22;1548;51.716;8.748;2022-09-09T07:20:53;19.00;74.40
3075;DHT22;1548;51.716;8.748;2022-09-09T07:23:20;19.00;74.30
3075;DHT22;1548;51.716;8.748;2022-09-09T07:25:46;19.10;74.30
3075;DHT22;1548;51.716;8.748;2022-09-09T07:28:13;19.20;74.20
3075;DHT22;1548;51.716;8.748;2022-09-09T07:30:40;19.30;74.00
3075;DHT22;1548;51.716;8.748;2022-09-09T07:33:06;19.30;74.10
3075;DHT22;1548;51.716;8.748;2022-09-09T07:35:32;19.30;74.00
3075;DHT22;1548;51.716;8.748;2022-09-09T07:37:58;19.40;73.90
3075;DHT22;1548;51.716;8.748;2022-09-09T07:40:26;19.40;73.80
3075;DHT22;1548;51.716;8.748;2022-09-09T07:42:51;19.50;73.70
3075;DHT22;1548;51.716;8.748;2022-09-09T07:45:17;19.50;73.70
3075;DHT22;1548;51.716;8.748;2022-09-09T07:47:42;19.40;73.80
3075;DHT22;1548;51.716;8.748;2022-09-09T07:50:09;19.50;73.90
3075;DHT22;1548;51.716;8.748;2022-09-09T07:52:35;19.60;73.60
3075;DHT22;1548;51.716;8.748;2022-09-09T07:55:01;19.80;73.50
3075;DHT22;1548;51.716;8.748;2022-09-09T07:57:28;19.90;73.40
3075;DHT22;1548;51.716;8.748;2022-09-09T07:59:56;19.80;73.30
3075;DHT22;1548;51.716;8.748;2022-09-09T08:02:22;19.80;73.40
3075;DHT22;1548;51.716;8.748;2022-09-09T08:04:49;19.80;73.30
3075;DHT22;1548;51.716;8.748;2022-09-09T08:07:14;19.70;73.20
3075;DHT22;1548;51.716;8.748;2022-09-09T08:09:41;19.70;73.30
3075;DHT22;1548;51.716;8.748;2022-09-09T08:12:07;19.70;73.50
3075;DHT22;1548;51.716;8.748;2022-09-09T08:14:33;19.60;74.00
3075;DHT22;1548;51.716;8.748;2022-09-09T08:16:59;19.40;74.30
3075;DHT22;1548;51.716;8.748;2022-09-09T08:19:25;19.20;74.40
3075;DHT22;1548;51.716;8.748;2022-09-09T08:21:50;19.10;74.60
3075;DHT22;1548;51.716;8.748;2022-09-09T08:24:16;18.90;74.70
3075;DHT22;1548;51.716;8.748;2022-09-09T08:26:51;19.00;75.10
3075;DHT22;1548;51.716;8.748;2022-09-09T08:29:17;19.00;75.30
3075;DHT22;1548;51.716;8.748;2022-09-09T08:31:51;19.10;75.40
3075;DHT22;1548;51.716;8.748;2022-09-09T08:34:20;19.20;75.20
3075;DHT22;1548;51.716;8.748;2022-09-09T08:36:47;19.40;75.30
3075;DHT22;1548;51.716;8.748;2022-09-09T08:39:15;19.50;74.90
3075;DHT22;1548;51.716;8.748;2022-09-09T08:58:18;20.90;72.20
3075;DHT22;1548;51.716;8.748;2022-09-09T09:14:22;21.10;72.10
3075;DHT22;1548;51.716;8.748;2022-09-09T09:17:00;20.70;71.50
3075;DHT22;1548;51.716;8.748;2022-09-09T09:19:27;20.50;72.30
3075;DHT22;1548;51.716;8.748;2022-09-09T09:22:20;20.50;72.00
3075;DHT22;1548;51.716;8.748;2022-09-09T09:25:10;20.50;71.70
3075;DHT22;1548;51.716;8.748;2022-09-09T09:27:52;20.50;72.20
3075;DHT22;1548;51.716;8.748;2022-09-09T09:30:23;20.50;71.80
3075;DHT22;1548;51.716;8.748;2022-09-09T09:33:02;20.60;71.70
3075;DHT22;1548;51.716;8.748;2022-09-09T09:35:31;20.60;71.90
3075;DHT22;1548;51.716;8.748;2022-09-09T09:37:56;20.70;71.30
3075;DHT22;1548;51.716;8.748;2022-09-09T09:40:22;20.90;71.10
3075;DHT22;1548;51.716;8.748;2022-09-09T09:43:00;20.70;70.20
3075;DHT22;1548;51.716;8.748;2022-09-09T09:45:35;20.70;70.20
3075;DHT22;1548;51.716;8.748;2022-09-09T09:48:10;20.80;69.60
3075;DHT22;1548;51.716;8.748;2022-09-09T09:50:50;21.00;69.20
3075;DHT22;1548;51.716;8.748;2022-09-09T09:53:24;21.10;69.50
3075;DHT22;1548;51.716;8.748;2022-09-09T09:55:58;21.10;68.80
3075;DHT22;1548;51.716;8.748;2022-09-09T09:58:26;21.20;68.70
3075;DHT22;1548;51.716;8.748;2022-09-09T10:00:53;21.20;68.10
3075;DHT22;1548;51.716;8.748;2022-09-09T10:03:26;21.40;68.20
3075;DHT22;1548;51.716;8.748;2022-09-09T10:05:52;21.60;68.00
3075;DHT22;1548;51.716;8.748;2022-09-09T10:08:19;21.80;67.50
3075;DHT22;1548;51.716;8.748;2022-09-09T10:19:30;21.80;64.70
3075;DHT22;1548;51.716;8.748;2022-09-09T10:24:44;21.60;65.10
3075;DHT22;1548;51.716;8.748;2022-09-09T10:33:04;21.40;65.00
3075;DHT22;1548;51.716;8.748;2022-09-09T10:41:22;21.80;65.40
3075;DHT22;1548;51.716;8.748;2022-09-09T10:44:12;21.90;65.00
3075;DHT22;1548;51.716;8.748;2022-09-09T10:53:06;22.10;64.50
3075;DHT22;1548;51.716;8.748;2022-09-09T10:55:45;22.40;64.10
3075;DHT22;1548;51.716;8.748;2022-09-09T11:01:42;22.60;63.20
3075;DHT22;1548;51.716;8.748;2022-09-09T11:04:22;22.90;62.80
3075;DHT22;1548;51.716;8.748;2022-09-09T11:06:53;23.00;61.70
3075;DHT22;1548;51.716;8.748;2022-09-09T11:09:23;23.10;61.10
3075;DHT22;1548;51.716;8.748;2022-09-09T11:14:36;23.10;59.90
3075;DHT22;1548;51.716;8.748;2022-09-09T11:17:09;23.10;60.30
3075;DHT22;1548;51.716;8.748;2022-09-09T11:19:40;23.10;60.60
3075;DHT22;1548;51.716;8.748;2022-09-09T11:22:18;23.10;59.60
3075;DHT22;1548;51.716;8.748;2022-09-09T11:24:49;23.10;60.00
3075;DHT22;1548;51.716;8.748;2022-09-09T11:30:43;22.90;59.70
3075;DHT22;1548;51.716;8.748;2022-09-09T11:36:25;21.60;63.50
3075;DHT22;1548;51.716;8.748;2022-09-09T11:42:25;22.00;63.10
3075;DHT22;1548;51.716;8.748;2022-09-09T11:44:52;22.50;61.60
3075;DHT22;1548;51.716;8.748;2022-09-09T11:47:28;22.60;61.00
3075;DHT22;1548;51.716;8.748;2022-09-09T11:52:42;22.10;62.30
3075;DHT22;1548;51.716;8.748;2022-09-09T11:55:30;22.10;61.40
3075;DHT22;1548;51.716;8.748;2022-09-09T11:58:05;22.40;60.90
3075;DHT22;1548;51.716;8.748;2022-09-09T12:00:40;22.80;60.60
3075;DHT22;1548;51.716;8.748;2022-09-09T12:03:40;22.90;60.80
3075;DHT22;1548;51.716;8.748;2022-09-09T12:08:45;23.00;61.40
3075;DHT22;1548;51.716;8.748;2022-09-09T12:11:12;22.80;61.20
3075;DHT22;1548;51.716;8.748;2022-09-09T12:13:56;22.40;62.10
3075;DHT22;1548;51.716;8.748;2022-09-09T12:24:19;22.30;63.70
3075;DHT22;1548;51.716;8.748;2022-09-09T12:26:58;22.60;62.90
3075;DHT22;1548;51.716;8.748;2022-09-09T12:32:10;22.60;62.90
3075;DHT22;1548;51.716;8.748;2022-09-09T12:34:41;22.40;62.20
3075;DHT22;1548;51.716;8.748;2022-09-09T12:39:49;22.40;61.30
3075;DHT22;1548;51.716;8.748;2022-09-09T12:42:17;22.60;61.20
3075;DHT22;1548;51.716;8.748;2022-09-09T12:44:53;22.70;61.20
3075;DHT22;1548;51.716;8.748;2022-09-09T12:47:22;22.60;60.90
3075;DHT22;1548;51.716;8.748;2022-09-09T12:49:51;22.80;61.30
3075;DHT22;1548;51.716;8.748;2022-09-09T12:52:29;23.00;61.20
3075;DHT22;1548;51.716;8.748;2022-09-09T12:54:57;23.10;60.20
3075;DHT22;1548;51.716;8.748;2022-09-09T12:57:24;23.10;60.80
3075;DHT22;1548;51.716;8.748;2022-09-09T12:59:51;23.30;60.10
3075;DHT22;1548;51.716;8.748;2022-09-09T13:02:24;23.40;59.30
3075;DHT22;1548;51.716;8.748;2022-09-09T13:04:51;23.50;59.40
3075;DHT22;1548;51.716;8.748;2022-09-09T13:07:18;23.60;59.10
3075;DHT22;1548;51.716;8.748;2022-09-09T13:09:46;23.70;58.40
3075;DHT22;1548;51.716;8.748;2022-09-09T13:12:23;23.80;58.10
3075;DHT22;1548;51.716;8.748;2022-09-09T13:14:53;23.70;58.40
3075;DHT22;1548;51.716;8.748;2022-09-09T13:17:24;23.70;58.40
3075;DHT22;1548;51.716;8.748;2022-09-09T13:19:51;23.80;57.90
3075;DHT22;1548;51.716;8.748;2022-09-09T13:22:31;24.00;57.90
3075;DHT22;1548;51.716;8.748;2022-09-09T13:25:32;24.30;56.80
3075;DHT22;1548;51.716;8.748;2022-09-09T13:27:55;24.50;56.40
3075;DHT22;1548;51.716;8.748;2022-09-09T13:30:33;24.50;56.40
3075;DHT22;1548;51.716;8.748;2022-09-09T13:33:04;24.70;56.50
3075;DHT22;1548;51.716;8.748;2022-09-09T13:35:30;24.60;56.30
3075;DHT22;1548;51.716;8.748;2022-09-09T13:37:56;24.60;56.10
3075;DHT22;1548;51.716;8.748;2022-09-09T13:40:23;24.40;56.40
3075;DHT22;1548;51.716;8.748;2022-09-09T13:42:55;24.30;56.80
3075;DHT22;1548;51.716;8.748;2022-09-09T13:45:23;24.20;56.50
3075;DHT22;1548;51.716;8.748;2022-09-09T13:47:52;24.00;56.60
3075;DHT22;1548;51.716;8.748;2022-09-09T13:50:26;24.00;57.10
3075;DHT22;1548;51.716;8.748;2022-09-09T13:52:57;24.10;56.50
3075;DHT22;1548;51.716;8.748;2022-09-09T13:55:29;24.10;55.00
3075;DHT22;1548;51.716;8.748;2022-09-09T13:57:57;23.90;55.20
3075;DHT22;1548;51.716;8.748;2022-09-09T14:00:23;24.10;54.80
3075;DHT22;1548;51.716;8.748;2022-09-09T14:02:50;24.00;55.10
3075;DHT22;1548;51.716;8.748;2022-09-09T14:05:17;24.00;55.40
3075;DHT22;1548;51.716;8.748;2022-09-09T14:07:44;24.20;55.80
3075;DHT22;1548;51.716;8.748;2022-09-09T14:10:10;24.40;55.30
3075;DHT22;1548;51.716;8.748;2022-09-09T14:12:37;24.40;54.10
3075;DHT22;1548;51.716;8.748;2022-09-09T14:15:04;24.30;55.20
3075;DHT22;1548;51.716;8.748;2022-09-09T14:17:30;24.40;55.50
3075;DHT22;1548;51.716;8.748;2022-09-09T14:19:57;24.60;55.30
3075;DHT22;1548;51.716;8.748;2022-09-09T14:22:23;24.60;54.50
3075;DHT22;1548;51.716;8.748;2022-09-09T14:24:49;24.00;55.50
3075;DHT22;1548;51.716;8.748;2022-09-09T14:27:16;23.70;56.40
3075;DHT22;1548;51.716;8.748;2022-09-09T14:29:42;24.00;56.60
3075;DHT22;1548;51.716;8.748;2022-09-09T14:32:09;24.20;56.50
3075;DHT22;1548;51.716;8.748;2022-09-09T14:34:35;24.30;56.50
3075;DHT22;1548;51.716;8.748;2022-09-09T14:37:01;24.50;56.50
3075;DHT22;1548;51.716;8.748;2022-09-09T14:39:26;24.40;56.30
3075;DHT22;1548;51.716;8.748;2022-09-09T14:41:52;24.40;56.00
3075;DHT22;1548;51.716;8.748;2022-09-09T14:44:18;24.60;56.00
3075;DHT22;1548;51.716;8.748;2022-09-09T14:46:44;24.60;55.90
3075;DHT22;1548;51.716;8.748;2022-09-09T14:49:09;24.60;55.00
3075;DHT22;1548;51.716;8.748;2022-09-09T14:51:38;23.80;55.40
3075;DHT22;1548;51.716;8.748;2022-09-09T14:54:04;23.70;56.30
3075;DHT22;1548;51.716;8.748;2022-09-09T14:56:32;23.80;56.50
3075;DHT22;1548;51.716;8.748;2022-09-09T14:59:00;23.90;56.30
3075;DHT22;1548;51.716;8.748;2022-09-09T15:01:27;24.00;56.30
3075;DHT22;1548;51.716;8.748;2022-09-09T15:03:54;24.00;56.40
3075;DHT22;1548;51.716;8.748;2022-09-09T15:06:22;24.00;56.40
3075;DHT22;1548;51.716;8.748;2022-09-09T15:08:50;24.00;56.60
3075;DHT22;1548;51.716;8.748;2022-09-09T15:11:16;23.80;57.20
3075;DHT22;1548;51.716;8.748;2022-09-09T15:13:43;23.60;57.40
3075;DHT22;1548;51.716;8.748;2022-09-09T15:16:19;23.60;57.90
3075;DHT22;1548;51.716;8.748;2022-09-09T15:18:45;23.60;57.80
3075;DHT22;1548;51.716;8.748;2022-09-09T15:21:16;23.50;57.90
3075;DHT22;1548;51.716;8.748;2022-09-09T15:23:44;23.40;57.60
3075;DHT22;1548;51.716;8.748;2022-09-09T15:26:10;23.30;57.50
3075;DHT22;1548;51.716;8.748;2022-09-09T15:28:37;23.40;56.90
3075;DHT22;1548;51.716;8.748;2022-09-09T15:31:15;23.60;56.10
3075;DHT22;1548;51.716;8.748;2022-09-09T15:33:48;23.70;56.10
3075;DHT22;1548;51.716;8.748;2022-09-09T15:36:22;23.80;56.40
3075;DHT22;1548;51.716;8.748;2022-09-09T15:38:49;23.80;56.30
3075;DHT22;1548;51.716;8.748;2022-09-09T15:41:16;23.70;56.50
3075;DHT22;1548;51.716;8.748;2022-09-09T15:43:56;23.60;56.80
3075;DHT22;1548;51.716;8.748;2022-09-09T15:49:05;23.60;57.50
3075;DHT22;1548;51.716;8.748;2022-09-09T15:51:31;23.00;58.10
3075;DHT22;1548;51.716;8.748;2022-09-09T15:53:58;23.00;58.90
3075;DHT22;1548;51.716;8.748;2022-09-09T15:56:29;23.10;58.70
3075;DHT22;1548;51.716;8.748;2022-09-09T15:58:59;23.10;58.80
3075;DHT22;1548;51.716;8.748;2022-09-09T16:01:26;23.10;59.10
3075;DHT22;1548;51.716;8.748;2022-09-09T16:03:52;23.10;59.10
3075;DHT22;1548;51.716;8.748;2022-09-09T16:06:20;23.10;59.20
3075;DHT22;1548;51.716;8.748;2022-09-09T16:08:48;23.00;59.20
3075;DHT22;1548;51.716;8.748;2022-09-09T16:11:23;22.90;59.50
3075;DHT22;1548;51.716;8.748;2022-09-09T16:13:51;22.80;60.10
3075;DHT22;1548;51.716;8.748;2022-09-09T16:16:18;22.70;60.80
3075;DHT22;1548;51.716;8.748;2022-09-09T16:18:51;22.70;61.10
3075;DHT22;1548;51.716;8.748;2022-09-09T16:21:26;22.60;61.50
3075;DHT22;1548;51.716;8.748;2022-09-09T16:23:55;22.50;61.80
3075;DHT22;1548;51.716;8.748;2022-09-09T16:26:21;22.50;62.10
3075;DHT22;1548;51.716;8.748;2022-09-09T16:28:47;22.40;62.60
3075;DHT22;1548;51.716;8.748;2022-09-09T16:31:17;22.40;63.00
3075;DHT22;1548;51.716;8.748;2022-09-09T16:33:43;22.30;63.30
3075;DHT22;1548;51.716;8.748;2022-09-09T16:36:11;22.20;64.10
3075;DHT22;1548;51.716;8.748;2022-09-09T16:38:38;22.00;64.40
3075;DHT22;1548;51.716;8.748;2022-09-09T16:41:05;21.60;64.20
3075;DHT22;1548;51.716;8.748;2022-09-09T16:43:33;21.20;65.00
3075;DHT22;1548;51.716;8.748;2022-09-09T16:45:58;21.00;65.90
3075;DHT22;1548;51.716;8.748;2022-09-09T16:48:27;20.80;66.60
3075;DHT22;1548;51.716;8.748;2022-09-09T16:51:07;20.80;67.40
3075;DHT22;1548;51.716;8.748;2022-09-09T16:53:35;20.60;68.30
3075;DHT22;1548;51.716;8.748;2022-09-09T16:56:12;20.30;69.70
3075;DHT22;1548;51.716;8.748;2022-09-09T16:58:38;19.90;70.70
3075;DHT22;1548;51.716;8.748;2022-09-09T17:01:04;19.60;71.40
3075;DHT22;1548;51.716;8.748;2022-09-09T17:03:31;19.30;71.90
3075;DHT22;1548;51.716;8.748;2022-09-09T17:05:57;19.30;72.20
3075;DHT22;1548;51.716;8.748;2022-09-09T17:08:24;19.30;72.20
3075;DHT22;1548;51.716;8.748;2022-09-09T17:10:49;19.10;72.60
3075;DHT22;1548;51.716;8.748;2022-09-09T17:13:16;18.80;73.00
3075;DHT22;1548;51.716;8.748;2022-09-09T17:15:44;18.60;73.70
3075;DHT22;1548;51.716;8.748;2022-09-09T17:18:11;18.60;73.90
3075;DHT22;1548;51.716;8.748;2022-09-09T17:20:41;18.50;74.00
3075;DHT22;1548;51.716;8.748;2022-09-09T17:23:08;18.30;74.30
3075;DHT22;1548;51.716;8.748;2022-09-09T17:25:35;18.30;74.40
3075;DHT22;1548;51.716;8.748;2022-09-09T17:28:01;18.30;74.60
3075;DHT22;1548;51.716;8.748;2022-09-09T17:30:30;18.40;74.70
3075;DHT22;1548;51.716;8.748;2022-09-09T17:32:56;18.50;74.50
3075;DHT22;1548;51.716;8.748;2022-09-09T17:35:22;18.50;74.20
3075;DHT22;1548;51.716;8.748;2022-09-09T17:37:47;18.50;74.20
3075;DHT22;1548;51.716;8.748;2022-09-09T17:40:13;18.40;74.20
3075;DHT22;1548;51.716;8.748;2022-09-09T17:42:39;18.40;74.30
3075;DHT22;1548;51.716;8.748;2022-09-09T17:45:06;18.40;74.40
3075;DHT22;1548;51.716;8.748;2022-09-09T17:47:32;18.40;74.50
3075;DHT22;1548;51.716;8.748;2022-09-09T17:49:57;18.40;74.30
3075;DHT22;1548;51.716;8.748;2022-09-09T17:52:24;18.50;74.40
3075;DHT22;1548;51.716;8.748;2022-09-09T17:54:49;18.40;74.30
3075;DHT22;1548;51.716;8.748;2022-09-09T17:57:15;18.40;74.40
3075;DHT22;1548;51.716;8.748;2022-09-09T17:59:44;18.30;74.30
3075;DHT22;1548;51.716;8.748;2022-09-09T18:02:12;18.30;74.60
3075;DHT22;1548;51.716;8.748;2022-09-09T18:04:38;18.20;74.70
3075;DHT22;1548;51.716;8.748;2022-09-09T18:07:04;18.20;74.80
3075;DHT22;1548;51.716;8.748;2022-09-09T18:09:30;18.20;74.80
3075;DHT22;1548;51.716;8.748;2022-09-09T18:11:57;18.10;74.90
3075;DHT22;1548;51.716;8.748;2022-09-09T18:14:26;18.00;75.20
3075;DHT22;1548;51.716;8.748;2022-09-09T18:16:52;18.00;75.20
3075;DHT22;1548;51.716;8.748;2022-09-09T18:19:21;17.90;75.30
3075;DHT22;1548;51.716;8.748;2022-09-09T18:21:48;17.80;75.50
3075;DHT22;1548;51.716;8.748;2022-09-09T18:24:14;17.70;75.70
3075;DHT22;1548;51.716;8.748;2022-09-09T18:26:41;17.60;75.80
3075;DHT22;1548;51.716;8.748;2022-09-09T18:29:10;17.60;76.00
3075;DHT22;1548;51.716;8.748;2022-09-09T18:31:36;17.60;76.10
3075;DHT22;1548;51.716;8.748;2022-09-09T18:34:06;17.60;76.30
3075;DHT22;1548;51.716;8.748;2022-09-09T18:36:38;17.50;76.30